sensor_id;sensor_type;location;lat;lon;timestamp;pressure;altitude;pressure_sealevel;temperature;humidity
66385;BME280;53426;55.872;37.462;2022-11-20T00:02:09;99268.53;;;-2.55;81.76
66385;BME280;53426;55.872;37.462;2022-11-20T00:04:35;99258.28;;;-2.58;81.61
66385;BME280;53426;55.872;37.462;2022-11-20T00:07:04;99284.72;;;-2.48;81.70
66385;BME280;53426;55.872;37.462;2022-11-20T00:09:29;99268.53;;;-2.55;81.31
66385;BME280;53426;55.872;37.462;2022-11-20T00:11:55;99277.91;;;-2.51;81.34
66385;BME280;53426;55.872;37.462;2022-11-20T00:14:21;99283.78;;;-2.46;81.28
66385;BME280;53426;55.872;37.462;2022-11-20T00:16:49;99262.97;;;-2.44;81.54
66385;BME280;53426;55.872;37.462;2022-11-20T00:19:16;99274.41;;;-2.50;81.01
66385;BME280;53426;55.872;37.462;2022-11-20T00:21:43;99283.25;;;-2.56;81.21
66385;BME280;53426;55.872;37.462;2022-11-20T00:24:13;99243.38;;;-2.76;81.15
66385;BME280;53426;55.872;37.462;2022-11-20T00:26:39;99288.63;;;-2.62;81.08
66385;BME280;53426;55.872;37.462;2022-11-20T00:29:10;99283.19;;;-2.54;81.42
66385;BME280;53426;55.872;37.462;2022-11-20T00:31:36;99264.41;;;-2.61;81.21
66385;BME280;53426;55.872;37.462;2022-11-20T00:34:02;99282.78;;;-2.42;80.75
66385;BME280;53426;55.872;37.462;2022-11-20T00:36:31;99201.06;;;-3.00;80.66
66385;BME280;53426;55.872;37.462;2022-11-20T00:38:58;99274.69;;;-2.58;80.24
66385;BME280;53426;55.872;37.462;2022-11-20T00:41:25;99266.25;;;-2.63;80.23
66385;BME280;53426;55.872;37.462;2022-11-20T00:43:54;99278.34;;;-2.63;80.42
66385;BME280;53426;55.872;37.462;2022-11-20T00:46:23;99281.63;;;-2.58;80.29
66385;BME280;53426;55.872;37.462;2022-11-20T00:48:50;99257.41;;;-2.57;80.04
66385;BME280;53426;55.872;37.462;2022-11-20T00:51:18;99283.72;;;-2.44;79.68
66385;BME280;53426;55.872;37.462;2022-11-20T00:53:46;99239.63;;;-2.68;79.55
66385;BME280;53426;55.872;37.462;2022-11-20T00:56:14;99272.56;;;-2.46;80.06
66385;BME280;53426;55.872;37.462;2022-11-20T00:58:43;99277.59;;;-2.42;79.66
66385;BME280;53426;55.872;37.462;2022-11-20T01:01:29;99280.84;;;-2.37;79.25
66385;BME280;53426;55.872;37.462;2022-11-20T01:03:57;99275.53;;;-2.34;79.33
66385;BME280;53426;55.872;37.462;2022-11-20T01:06:39;99279.75;;;-2.30;79.14
66385;BME280;53426;55.872;37.462;2022-11-20T01:09:09;99277.25;;;-2.33;78.78
66385;BME280;53426;55.872;37.462;2022-11-20T01:11:39;99261.19;;;-2.42;79.15
66385;BME280;53426;55.872;37.462;2022-11-20T01:14:09;99279.41;;;-2.45;79.21
66385;BME280;53426;55.872;37.462;2022-11-20T01:16:37;99280.56;;;-2.53;79.18
66385;BME280;53426;55.872;37.462;2022-11-20T01:19:07;99259.81;;;-2.53;79.25
66385;BME280;53426;55.872;37.462;2022-11-20T01:21:37;99273.63;;;-2.29;79.13
66385;BME280;53426;55.872;37.462;2022-11-20T01:24:07;99262.94;;;-2.20;79.27
66385;BME280;53426;55.872;37.462;2022-11-20T01:26:39;99266.09;;;-2.12;78.24
66385;BME280;53426;55.872;37.462;2022-11-20T01:29:07;99279.19;;;-2.15;77.57
66385;BME280;53426;55.872;37.462;2022-11-20T01:31:36;99239.41;;;-2.38;77.50
66385;BME280;53426;55.872;37.462;2022-11-20T01:34:09;99242.88;;;-2.38;77.53
66385;BME280;53426;55.872;37.462;2022-11-20T01:36:37;99276.41;;;-2.33;77.29
66385;BME280;53426;55.872;37.462;2022-11-20T01:39:17;99254.53;;;-2.49;77.75
66385;BME280;53426;55.872;37.462;2022-11-20T01:50:40;99287.44;;;-2.51;77.58
66385;BME280;53426;55.872;37.462;2022-11-20T01:53:13;99285.53;;;-2.46;77.97
66385;BME280;53426;55.872;37.462;2022-11-20T01:55:50;99299.94;;;-2.15;78.15
66385;BME280;53426;55.872;37.462;2022-11-20T01:58:20;99286.97;;;-2.15;77.03
66385;BME280;53426;55.872;37.462;2022-11-20T02:00:47;99303.19;;;-2.09;77.08
66385;BME280;53426;55.872;37.462;2022-11-20T02:03:16;99298.69;;;-2.04;76.12
66385;BME280;53426;55.872;37.462;2022-11-20T02:08:15;99317.91;;;-2.10;75.93
66385;BME280;53426;55.872;37.462;2022-11-20T02:10:42;99312.69;;;-2.08;76.14
66385;BME280;53426;55.872;37.462;2022-11-20T02:13:08;99329.56;;;-2.22;75.49
66385;BME280;53426;55.872;37.462;2022-11-20T02:15:53;99299.47;;;-2.50;76.23
66385;BME280;53426;55.872;37.462;2022-11-20T02:18:20;99311.91;;;-2.60;76.37
66385;BME280;53426;55.872;37.462;2022-11-20T02:20:54;99309.44;;;-2.63;76.45
66385;BME280;53426;55.872;37.462;2022-11-20T02:23:34;99313.56;;;-2.58;76.91
66385;BME280;53426;55.872;37.462;2022-11-20T02:26:09;99319.47;;;-2.54;77.19
66385;BME280;53426;55.872;37.462;2022-11-20T02:28:36;99262.91;;;-2.91;76.98
66385;BME280;53426;55.872;37.462;2022-11-20T02:31:02;99320.50;;;-2.58;76.94
66385;BME280;53426;55.872;37.462;2022-11-20T02:33:29;99324.19;;;-2.65;76.87
66385;BME280;53426;55.872;37.462;2022-11-20T02:35:58;99299.59;;;-2.78;77.07
66385;BME280;53426;55.872;37.462;2022-11-20T02:38:26;99327.25;;;-2.54;77.41
66385;BME280;53426;55.872;37.462;2022-11-20T02:40:52;99316.81;;;-2.51;77.46
66385;BME280;53426;55.872;37.462;2022-11-20T02:43:17;99336.25;;;-2.39;76.68
66385;BME280;53426;55.872;37.462;2022-11-20T02:45:47;99334.72;;;-2.45;76.91
66385;BME280;53426;55.872;37.462;2022-11-20T02:48:13;99302.31;;;-2.83;76.74
66385;BME280;53426;55.872;37.462;2022-11-20T02:50:41;99335.34;;;-2.63;77.17
66385;BME280;53426;55.872;37.462;2022-11-20T02:53:43;99335.28;;;-2.62;77.34
66385;BME280;53426;55.872;37.462;2022-11-20T02:56:08;99347.31;;;-2.59;77.19
66385;BME280;53426;55.872;37.462;2022-11-20T02:58:35;99326.44;;;-2.56;77.19
66385;BME280;53426;55.872;37.462;2022-11-20T03:01:00;99343.28;;;-2.43;76.89
66385;BME280;53426;55.872;37.462;2022-11-20T03:03:26;99304.63;;;-2.49;76.83
66385;BME280;53426;55.872;37.462;2022-11-20T03:05:52;99317.97;;;-2.35;76.80
66385;BME280;53426;55.872;37.462;2022-11-20T03:08:18;99337.97;;;-2.15;76.50
66385;BME280;53426;55.872;37.462;2022-11-20T03:10:43;99334.94;;;-2.26;75.90
66385;BME280;53426;55.872;37.462;2022-11-20T03:17:35;99304.16;;;-2.35;75.54
66385;BME280;53426;55.872;37.462;2022-11-20T03:20:01;99336.34;;;-2.18;75.85
66385;BME280;53426;55.872;37.462;2022-11-20T03:31:43;99329.44;;;-2.42;74.97
66385;BME280;53426;55.872;37.462;2022-11-20T03:34:11;99346.69;;;-2.41;74.98
66385;BME280;53426;55.872;37.462;2022-11-20T03:36:42;99346.56;;;-2.38;75.50
66385;BME280;53426;55.872;37.462;2022-11-20T03:39:14;99349.97;;;-2.36;75.66
66385;BME280;53426;55.872;37.462;2022-11-20T03:41:44;99339.81;;;-2.42;75.76
66385;BME280;53426;55.872;37.462;2022-11-20T03:44:11;99347.47;;;-2.39;75.82
66385;BME280;53426;55.872;37.462;2022-11-20T03:46:37;99338.78;;;-2.38;75.64
66385;BME280;53426;55.872;37.462;2022-11-20T03:51:59;99349.84;;;-2.58;75.79
66385;BME280;53426;55.872;37.462;2022-11-20T03:54:25;99346.56;;;-2.63;75.92
66385;BME280;53426;55.872;37.462;2022-11-20T03:56:51;99357.88;;;-2.65;76.10
66385;BME280;53426;55.872;37.462;2022-11-20T04:03:15;99351.09;;;-2.69;76.12
66385;BME280;53426;55.872;37.462;2022-11-20T04:14:39;99359.84;;;-2.22;74.87
66385;BME280;53426;55.872;37.462;2022-11-20T04:17:05;99376.84;;;-2.14;75.25
66385;BME280;53426;55.872;37.462;2022-11-20T04:19:31;99385.94;;;-2.02;74.96
66385;BME280;53426;55.872;37.462;2022-11-20T04:27:55;99384.53;;;-2.12;74.29
66385;BME280;53426;55.872;37.462;2022-11-20T04:30:21;99388.00;;;-2.12;74.43
66385;BME280;53426;55.872;37.462;2022-11-20T04:32:47;99396.91;;;-2.19;74.48
66385;BME280;53426;55.872;37.462;2022-11-20T04:35:13;99399.59;;;-2.22;74.79
66385;BME280;53426;55.872;37.462;2022-11-20T04:37:38;99400.66;;;-2.02;74.77
66385;BME280;53426;55.872;37.462;2022-11-20T04:40:05;99400.66;;;-2.02;74.00
66385;BME280;53426;55.872;37.462;2022-11-20T04:42:30;99407.88;;;-1.87;73.51
66385;BME280;53426;55.872;37.462;2022-11-20T04:44:56;99413.03;;;-2.11;73.54
66385;BME280;53426;55.872;37.462;2022-11-20T04:47:23;99414.72;;;-2.09;73.20
66385;BME280;53426;55.872;37.462;2022-11-20T04:49:49;99417.47;;;-2.39;73.52
66385;BME280;53426;55.872;37.462;2022-11-20T04:52:15;99411.06;;;-2.29;73.88
66385;BME280;53426;55.872;37.462;2022-11-20T04:54:41;99419.16;;;-2.38;74.26
66385;BME280;53426;55.872;37.462;2022-11-20T04:57:07;99425.72;;;-2.28;74.56
66385;BME280;53426;55.872;37.462;2022-11-20T04:59:33;99424.94;;;-2.30;73.78
66385;BME280;53426;55.872;37.462;2022-11-20T05:02:00;99430.53;;;-2.17;73.93
66385;BME280;53426;55.872;37.462;2022-11-20T05:04:25;99424.00;;;-2.02;74.19
66385;BME280;53426;55.872;37.462;2022-11-20T05:06:52;99423.50;;;-1.89;73.17
66385;BME280;53426;55.872;37.462;2022-11-20T05:09:18;99430.38;;;-1.88;72.96
66385;BME280;53426;55.872;37.462;2022-11-20T05:11:44;99422.19;;;-2.00;72.53
66385;BME280;53426;55.872;37.462;2022-11-20T05:14:09;99435.47;;;-2.09;72.97
66385;BME280;53426;55.872;37.462;2022-11-20T05:16:37;99433.94;;;-2.15;73.31
66385;BME280;53426;55.872;37.462;2022-11-20T05:19:04;99423.63;;;-2.17;72.91
66385;BME280;53426;55.872;37.462;2022-11-20T05:21:31;99436.00;;;-2.25;73.09
66385;BME280;53426;55.872;37.462;2022-11-20T05:56:39;99471.88;;;-2.13;73.43
66385;BME280;53426;55.872;37.462;2022-11-20T05:59:06;99468.28;;;-2.33;73.79
66385;BME280;53426;55.872;37.462;2022-11-20T06:14:14;99516.47;;;-2.01;72.99
66385;BME280;53426;55.872;37.462;2022-11-20T06:16:42;99507.03;;;-2.02;73.23
66385;BME280;53426;55.872;37.462;2022-11-20T06:19:07;99518.09;;;-1.97;72.85
66385;BME280;53426;55.872;37.462;2022-11-20T06:21:33;99505.13;;;-1.97;73.16
66385;BME280;53426;55.872;37.462;2022-11-20T06:23:59;99514.84;;;-1.79;73.15
66385;BME280;53426;55.872;37.462;2022-11-20T06:26:26;99512.03;;;-1.73;73.33
66385;BME280;53426;55.872;37.462;2022-11-20T06:28:54;99501.13;;;-1.83;72.02
66385;BME280;53426;55.872;37.462;2022-11-20T06:31:22;99513.06;;;-1.77;72.69
66385;BME280;53426;55.872;37.462;2022-11-20T06:33:49;99509.50;;;-1.99;72.40
66385;BME280;53426;55.872;37.462;2022-11-20T06:36:38;99508.69;;;-2.01;72.40
66385;BME280;53426;55.872;37.462;2022-11-20T06:39:04;99514.66;;;-1.98;72.67
66385;BME280;53426;55.872;37.462;2022-11-20T06:41:29;99536.41;;;-1.77;72.66
66385;BME280;53426;55.872;37.462;2022-11-20T06:43:55;99517.94;;;-1.93;72.10
66385;BME280;53426;55.872;37.462;2022-11-20T06:49:54;99509.97;;;-1.88;72.26
66385;BME280;53426;55.872;37.462;2022-11-20T06:52:19;99532.47;;;-1.89;72.56
66385;BME280;53426;55.872;37.462;2022-11-20T06:54:45;99535.47;;;-1.75;71.78
66385;BME280;53426;55.872;37.462;2022-11-20T06:57:11;99531.09;;;-1.74;71.90
66385;BME280;53426;55.872;37.462;2022-11-20T06:59:37;99530.41;;;-1.79;72.28
66385;BME280;53426;55.872;37.462;2022-11-20T07:02:02;99526.44;;;-1.89;72.03
66385;BME280;53426;55.872;37.462;2022-11-20T07:04:28;99524.44;;;-1.81;72.63
66385;BME280;53426;55.872;37.462;2022-11-20T07:06:54;99530.22;;;-1.73;72.32
66385;BME280;53426;55.872;37.462;2022-11-20T07:09:20;99515.44;;;-1.71;72.06
66385;BME280;53426;55.872;37.462;2022-11-20T07:11:46;99523.66;;;-1.58;72.04
66385;BME280;53426;55.872;37.462;2022-11-20T07:14:12;99521.47;;;-1.46;71.56
66385;BME280;53426;55.872;37.462;2022-11-20T07:16:38;99514.59;;;-1.72;72.08
66385;BME280;53426;55.872;37.462;2022-11-20T07:19:04;99510.03;;;-1.65;71.92
66385;BME280;53426;55.872;37.462;2022-11-20T07:45:00;99520.00;;;-1.53;70.22
66385;BME280;53426;55.872;37.462;2022-11-20T07:51:31;99501.44;;;-1.67;70.19
66385;BME280;53426;55.872;37.462;2022-11-20T07:56:56;99552.84;;;-1.27;70.48
66385;BME280;53426;55.872;37.462;2022-11-20T07:59:22;99544.91;;;-1.24;70.34
66385;BME280;53426;55.872;37.462;2022-11-20T08:01:53;99550.53;;;-1.11;70.04
66385;BME280;53426;55.872;37.462;2022-11-20T08:04:19;99543.84;;;-1.18;70.48
66385;BME280;53426;55.872;37.462;2022-11-20T08:06:46;99553.22;;;-1.14;70.55
66385;BME280;53426;55.872;37.462;2022-11-20T08:09:46;99524.81;;;-1.19;70.03
66385;BME280;53426;55.872;37.462;2022-11-20T08:18:18;99561.91;;;-0.92;69.94
66385;BME280;53426;55.872;37.462;2022-11-20T08:20:44;99502.50;;;-1.24;69.53
66385;BME280;53426;55.872;37.462;2022-11-20T08:23:11;99517.09;;;-1.20;70.22
66385;BME280;53426;55.872;37.462;2022-11-20T08:25:37;99564.53;;;-0.92;69.88
66385;BME280;53426;55.872;37.462;2022-11-20T08:28:08;99530.31;;;-1.27;69.42
66385;BME280;53426;55.872;37.462;2022-11-20T08:30:37;99547.47;;;-0.99;69.89
66385;BME280;53426;55.872;37.462;2022-11-20T08:36:33;99564.81;;;-0.76;69.09
66385;BME280;53426;55.872;37.462;2022-11-20T08:39:07;99588.34;;;-0.81;68.89
66385;BME280;53426;55.872;37.462;2022-11-20T08:41:33;99595.47;;;-0.86;69.42
66385;BME280;53426;55.872;37.462;2022-11-20T08:44:02;99578.31;;;-0.90;68.89
66385;BME280;53426;55.872;37.462;2022-11-20T08:49:11;99561.41;;;-0.78;70.28
66385;BME280;53426;55.872;37.462;2022-11-20T08:51:39;99590.28;;;-0.63;69.30
66385;BME280;53426;55.872;37.462;2022-11-20T09:03:44;99599.25;;;-0.05;67.73
66385;BME280;53426;55.872;37.462;2022-11-20T09:06:17;99599.81;;;-0.18;67.02
66385;BME280;53426;55.872;37.462;2022-11-20T09:08:45;99600.19;;;-0.27;67.15
66385;BME280;53426;55.872;37.462;2022-11-20T09:11:11;99608.91;;;-0.07;69.16
66385;BME280;53426;55.872;37.462;2022-11-20T09:17:00;99625.91;;;0.02;67.32
66385;BME280;53426;55.872;37.462;2022-11-20T09:19:26;99624.28;;;-0.22;67.51
66385;BME280;53426;55.872;37.462;2022-11-20T09:25:09;99639.72;;;0.04;67.91
66385;BME280;53426;55.872;37.462;2022-11-20T09:27:34;99643.09;;;0.06;68.48
66385;BME280;53426;55.872;37.462;2022-11-20T09:30:04;99642.19;;;0.07;68.09
66385;BME280;53426;55.872;37.462;2022-11-20T09:32:30;99662.16;;;0.28;67.52
66385;BME280;53426;55.872;37.462;2022-11-20T09:34:57;99651.50;;;0.13;66.82
66385;BME280;53426;55.872;37.462;2022-11-20T09:37:29;99669.53;;;0.17;67.79
66385;BME280;53426;55.872;37.462;2022-11-20T09:39:54;99659.25;;;0.14;67.25
66385;BME280;53426;55.872;37.462;2022-11-20T10:12:20;99669.78;;;0.33;69.12
66385;BME280;53426;55.872;37.462;2022-11-20T10:22:21;99695.56;;;0.39;70.65
66385;BME280;53426;55.872;37.462;2022-11-20T10:41:54;99681.53;;;0.43;71.45
66385;BME280;53426;55.872;37.462;2022-11-20T10:44:30;99691.22;;;0.39;70.74
66385;BME280;53426;55.872;37.462;2022-11-20T10:50:36;99689.66;;;0.35;71.48
66385;BME280;53426;55.872;37.462;2022-11-20T10:53:19;99699.94;;;0.38;71.60
66385;BME280;53426;55.872;37.462;2022-11-20T10:56:05;99710.00;;;0.26;71.23
66385;BME280;53426;55.872;37.462;2022-11-20T10:58:48;99691.13;;;0.21;71.51
66385;BME280;53426;55.872;37.462;2022-11-20T11:01:21;99687.09;;;0.12;71.61
66385;BME280;53426;55.872;37.462;2022-11-20T11:18:33;99708.72;;;-0.08;72.98
66385;BME280;53426;55.872;37.462;2022-11-20T11:21:04;99711.03;;;0.00;72.64
66385;BME280;53426;55.872;37.462;2022-11-20T11:23:41;99724.72;;;0.05;72.64
66385;BME280;53426;55.872;37.462;2022-11-20T11:26:35;99730.69;;;0.07;71.97
66385;BME280;53426;55.872;37.462;2022-11-20T11:39:54;99678.25;;;-0.51;71.86
66385;BME280;53426;55.872;37.462;2022-11-20T11:42:22;99725.91;;;-0.27;71.75
66385;BME280;53426;55.872;37.462;2022-11-20T11:45:32;99722.53;;;-0.29;71.56
66385;BME280;53426;55.872;37.462;2022-11-20T11:48:00;99709.63;;;-0.32;71.53
66385;BME280;53426;55.872;37.462;2022-11-20T11:50:29;99727.88;;;-0.10;71.13
66385;BME280;53426;55.872;37.462;2022-11-20T11:53:18;99729.47;;;-0.06;70.08
66385;BME280;53426;55.872;37.462;2022-11-20T11:55:56;99720.25;;;-0.15;69.96
66385;BME280;53426;55.872;37.462;2022-11-20T11:58:46;99731.50;;;-0.14;69.90
66385;BME280;53426;55.872;37.462;2022-11-20T12:16:35;99743.22;;;-0.03;68.72
66385;BME280;53426;55.872;37.462;2022-11-20T12:19:16;99694.31;;;-0.39;68.16
66385;BME280;53426;55.872;37.462;2022-11-20T12:39:54;99718.16;;;-0.28;68.11
66385;BME280;53426;55.872;37.462;2022-11-20T12:42:46;99727.38;;;-0.20;68.21
66385;BME280;53426;55.872;37.462;2022-11-20T12:45:35;99735.59;;;-0.30;68.90
66385;BME280;53426;55.872;37.462;2022-11-20T12:54:17;99736.97;;;-0.22;68.55
66385;BME280;53426;55.872;37.462;2022-11-20T13:03:03;99758.81;;;-0.26;68.01
66385;BME280;53426;55.872;37.462;2022-11-20T13:08:25;99761.59;;;-0.30;67.40
66385;BME280;53426;55.872;37.462;2022-11-20T13:11:09;99764.03;;;-0.26;67.67
66385;BME280;53426;55.872;37.462;2022-11-20T13:19:13;99760.81;;;-0.09;67.67
66385;BME280;53426;55.872;37.462;2022-11-20T13:24:35;99769.50;;;-0.10;67.66
66385;BME280;53426;55.872;37.462;2022-11-20T13:29:37;99745.53;;;-0.18;67.24
66385;BME280;53426;55.872;37.462;2022-11-20T13:38:12;99784.00;;;-0.26;67.74
66385;BME280;53426;55.872;37.462;2022-11-20T13:40:52;99776.66;;;-0.15;68.32
66385;BME280;53426;55.872;37.462;2022-11-20T13:43:22;99746.22;;;-0.36;66.83
66385;BME280;53426;55.872;37.462;2022-11-20T13:58:06;99792.47;;;-0.21;68.15
66385;BME280;53426;55.872;37.462;2022-11-20T14:00:51;99772.63;;;-0.24;67.40
66385;BME280;53426;55.872;37.462;2022-11-20T14:07:41;99794.09;;;-0.17;67.69
66385;BME280;53426;55.872;37.462;2022-11-20T14:10:29;99800.81;;;-0.12;67.65
66385;BME280;53426;55.872;37.462;2022-11-20T14:12:55;99773.66;;;-0.28;67.17
66385;BME280;53426;55.872;37.462;2022-11-20T14:15:32;99776.66;;;-0.15;67.06
66385;BME280;53426;55.872;37.462;2022-11-20T14:17:59;99804.59;;;0.03;67.09
66385;BME280;53426;55.872;37.462;2022-11-20T14:20:31;99810.72;;;0.02;66.94
66385;BME280;53426;55.872;37.462;2022-11-20T14:23:29;99751.19;;;-0.30;67.22
66385;BME280;53426;55.872;37.462;2022-11-20T14:25:56;99791.94;;;-0.06;67.04
66385;BME280;53426;55.872;37.462;2022-11-20T14:28:30;99809.41;;;0.14;66.83
66385;BME280;53426;55.872;37.462;2022-11-20T14:31:16;99800.19;;;0.05;66.85
66385;BME280;53426;55.872;37.462;2022-11-20T14:33:42;99797.81;;;-0.01;66.40
66385;BME280;53426;55.872;37.462;2022-11-20T14:40:31;99821.34;;;0.19;66.20
66385;BME280;53426;55.872;37.462;2022-11-20T14:42:58;99831.81;;;0.18;65.34
66385;BME280;53426;55.872;37.462;2022-11-20T14:45:25;99830.06;;;0.18;65.17
66385;BME280;53426;55.872;37.462;2022-11-20T14:48:14;99826.09;;;0.08;65.05
66385;BME280;53426;55.872;37.462;2022-11-20T14:51:08;99825.88;;;0.14;65.17
66385;BME280;53426;55.872;37.462;2022-11-20T14:53:34;99830.06;;;-0.05;65.68
66385;BME280;53426;55.872;37.462;2022-11-20T14:56:02;99833.25;;;0.03;66.07
66385;BME280;53426;55.872;37.462;2022-11-20T14:58:30;99834.72;;;0.10;65.75
66385;BME280;53426;55.872;37.462;2022-11-20T15:01:03;99841.34;;;0.19;65.56
66385;BME280;53426;55.872;37.462;2022-11-20T15:03:40;99796.75;;;0.05;65.48
66385;BME280;53426;55.872;37.462;2022-11-20T15:06:09;99811.13;;;0.15;65.54
66385;BME280;53426;55.872;37.462;2022-11-20T15:08:38;99802.56;;;0.11;65.15
66385;BME280;53426;55.872;37.462;2022-11-20T15:11:22;99814.50;;;0.17;65.29
66385;BME280;53426;55.872;37.462;2022-11-20T15:13:53;99795.00;;;0.05;65.39
66385;BME280;53426;55.872;37.462;2022-11-20T15:16:21;99826.34;;;0.25;65.61
66385;BME280;53426;55.872;37.462;2022-11-20T15:18:48;99829.03;;;0.22;65.00
66385;BME280;53426;55.872;37.462;2022-11-20T15:21:18;99821.41;;;0.18;65.38
66385;BME280;53426;55.872;37.462;2022-11-20T15:23:44;99817.91;;;0.19;65.70
66385;BME280;53426;55.872;37.462;2022-11-20T15:26:12;99817.72;;;0.23;65.78
66385;BME280;53426;55.872;37.462;2022-11-20T15:37:42;99817.81;;;0.22;64.71
66385;BME280;53426;55.872;37.462;2022-11-20T15:40:09;99793.38;;;0.01;64.91
66385;BME280;53426;55.872;37.462;2022-11-20T15:42:35;99788.81;;;0.08;64.79
66385;BME280;53426;55.872;37.462;2022-11-20T15:45:02;99822.25;;;0.18;64.57
66385;BME280;53426;55.872;37.462;2022-11-20T15:53:41;99809.59;;;0.09;64.72
66385;BME280;53426;55.872;37.462;2022-11-20T15:56:14;99829.63;;;0.07;64.72
66385;BME280;53426;55.872;37.462;2022-11-20T15:58:49;99799.28;;;-0.17;64.68
66385;BME280;53426;55.872;37.462;2022-11-20T16:04:14;99827.31;;;-0.01;65.61
66385;BME280;53426;55.872;37.462;2022-11-20T16:06:41;99831.75;;;-0.04;65.66
66385;BME280;53426;55.872;37.462;2022-11-20T16:09:08;99835.16;;;-0.02;65.59
66385;BME280;53426;55.872;37.462;2022-11-20T16:11:49;99829.78;;;0.03;64.97
66385;BME280;53426;55.872;37.462;2022-11-20T16:14:15;99830.69;;;0.02;64.80
66385;BME280;53426;55.872;37.462;2022-11-20T16:17:00;99807.47;;;-0.05;64.80
66385;BME280;53426;55.872;37.462;2022-11-20T16:29:51;99817.84;;;-0.03;64.87
66385;BME280;53426;55.872;37.462;2022-11-20T16:32:16;99814.34;;;-0.02;65.55
66385;BME280;53426;55.872;37.462;2022-11-20T16:34:43;99802.91;;;0.02;65.49
66385;BME280;53426;55.872;37.462;2022-11-20T16:37:35;99805.16;;;0.11;65.76
66385;BME280;53426;55.872;37.462;2022-11-20T16:43:29;99763.47;;;-0.11;65.00
66385;BME280;53426;55.872;37.462;2022-11-20T16:46:20;99801.47;;;0.17;65.24
66385;BME280;53426;55.872;37.462;2022-11-20T16:53:12;99827.13;;;0.04;64.66
66385;BME280;53426;55.872;37.462;2022-11-20T16:55:47;99790.81;;;-0.22;65.28
66385;BME280;53426;55.872;37.462;2022-11-20T17:02:25;99832.72;;;-0.07;64.95
66385;BME280;53426;55.872;37.462;2022-11-20T17:04:54;99828.47;;;-0.09;65.43
66385;BME280;53426;55.872;37.462;2022-11-20T17:07:20;99824.81;;;-0.04;65.37
66385;BME280;53426;55.872;37.462;2022-11-20T17:23:16;99805.56;;;0.00;64.88
66385;BME280;53426;55.872;37.462;2022-11-20T17:26:19;99827.50;;;0.17;64.68
66385;BME280;53426;55.872;37.462;2022-11-20T17:28:53;99820.63;;;0.16;64.48
66385;BME280;53426;55.872;37.462;2022-11-20T17:46:15;99842.38;;;0.15;64.11
66385;BME280;53426;55.872;37.462;2022-11-20T17:48:44;99816.34;;;-0.10;63.59
66385;BME280;53426;55.872;37.462;2022-11-20T17:51:27;99802.88;;;-0.21;64.41
66385;BME280;53426;55.872;37.462;2022-11-20T17:56:57;99820.16;;;-0.19;64.88
66385;BME280;53426;55.872;37.462;2022-11-20T17:59:43;99814.94;;;-0.19;64.52
66385;BME280;53426;55.872;37.462;2022-11-20T18:02:09;99813.84;;;-0.12;64.31
66385;BME280;53426;55.872;37.462;2022-11-20T18:04:38;99800.34;;;-0.23;64.03
66385;BME280;53426;55.872;37.462;2022-11-20T18:07:03;99838.16;;;-0.13;64.40
66385;BME280;53426;55.872;37.462;2022-11-20T18:09:51;99836.97;;;-0.04;64.77
66385;BME280;53426;55.872;37.462;2022-11-20T18:16:33;99821.47;;;-0.07;64.91
66385;BME280;53426;55.872;37.462;2022-11-20T18:21:56;99816.91;;;-0.25;65.52
66385;BME280;53426;55.872;37.462;2022-11-20T18:24:24;99778.88;;;-0.53;64.87
66385;BME280;53426;55.872;37.462;2022-11-20T18:26:50;99809.38;;;-0.58;64.79
66385;BME280;53426;55.872;37.462;2022-11-20T18:29:20;99798.66;;;-0.73;65.79
66385;BME280;53426;55.872;37.462;2022-11-20T18:31:46;99821.50;;;-0.57;65.92
66385;BME280;53426;55.872;37.462;2022-11-20T18:40:07;99821.22;;;-0.49;65.53
66385;BME280;53426;55.872;37.462;2022-11-20T18:42:35;99792.72;;;-0.52;65.34
66385;BME280;53426;55.872;37.462;2022-11-20T18:45:23;99781.75;;;-0.60;65.36
66385;BME280;53426;55.872;37.462;2022-11-20T18:47:49;99795.94;;;-0.44;65.76
66385;BME280;53426;55.872;37.462;2022-11-20T18:50:20;99835.09;;;-0.24;65.56
66385;BME280;53426;55.872;37.462;2022-11-20T18:52:52;99847.03;;;-0.18;65.50
66385;BME280;53426;55.872;37.462;2022-11-20T18:55:18;99848.06;;;-0.22;64.98
66385;BME280;53426;55.872;37.462;2022-11-20T19:01:26;99846.56;;;-0.29;64.64
66385;BME280;53426;55.872;37.462;2022-11-20T19:03:52;99862.16;;;-0.29;64.43
66385;BME280;53426;55.872;37.462;2022-11-20T19:13:34;99796.66;;;-1.16;66.31
66385;BME280;53426;55.872;37.462;2022-11-20T19:16:30;99828.34;;;-1.05;66.36
66385;BME280;53426;55.872;37.462;2022-11-20T19:18:59;99809.97;;;-1.27;66.52
66385;BME280;53426;55.872;37.462;2022-11-20T19:21:25;99829.03;;;-1.00;66.80
66385;BME280;53426;55.872;37.462;2022-11-20T19:23:53;99826.81;;;-1.12;66.14
66385;BME280;53426;55.872;37.462;2022-11-20T19:26:21;99828.41;;;-1.08;66.07
66385;BME280;53426;55.872;37.462;2022-11-20T19:36:19;99791.03;;;-1.31;67.76
66385;BME280;53426;55.872;37.462;2022-11-20T19:38:48;99809.84;;;-1.22;68.88
66385;BME280;53426;55.872;37.462;2022-11-20T19:41:18;99808.66;;;-1.40;69.53
66385;BME280;53426;55.872;37.462;2022-11-20T19:43:46;99816.28;;;-1.36;70.38
66385;BME280;53426;55.872;37.462;2022-11-20T19:46:21;99810.31;;;-1.38;70.36
66385;BME280;53426;55.872;37.462;2022-11-20T19:48:50;99816.19;;;-1.31;70.85
66385;BME280;53426;55.872;37.462;2022-11-20T19:51:21;99771.78;;;-1.51;71.00
66385;BME280;53426;55.872;37.462;2022-11-20T19:53:47;99818.91;;;-1.36;70.45
66385;BME280;53426;55.872;37.462;2022-11-20T20:02:16;99765.88;;;-1.84;71.35
66385;BME280;53426;55.872;37.462;2022-11-20T20:04:48;99765.09;;;-1.86;71.65
66385;BME280;53426;55.872;37.462;2022-11-20T20:10:42;99812.72;;;-1.59;72.28
66385;BME280;53426;55.872;37.462;2022-11-20T20:13:10;99786.38;;;-1.75;72.23
66385;BME280;53426;55.872;37.462;2022-11-20T20:19:20;99809.66;;;-1.44;71.64
66385;BME280;53426;55.872;37.462;2022-11-20T20:21:45;99833.59;;;-1.35;71.26
66385;BME280;53426;55.872;37.462;2022-11-20T20:24:12;99831.84;;;-1.34;71.60
66385;BME280;53426;55.872;37.462;2022-11-20T20:26:38;99831.94;;;-1.37;71.49
66385;BME280;53426;55.872;37.462;2022-11-20T20:38:21;99846.00;;;-1.44;71.70
66385;BME280;53426;55.872;37.462;2022-11-20T20:40:47;99834.25;;;-1.56;72.01